createdAt,value
2022-07-28T00:00:26.070Z,33.61
2022-07-28T00:00:56.295Z,33.61
2022-07-28T00:01:26.342Z,33.61
2022-07-28T00:01:56.406Z,33.61
2022-07-28T00:02:26.567Z,33.59
2022-07-28T00:02:56.557Z,33.59
2022-07-28T00:03:26.758Z,33.64
2022-07-28T00:03:56.594Z,33.62
2022-07-28T00:04:26.706Z,33.59
2022-07-28T00:04:56.818Z,33.62
2022-07-28T00:05:26.933Z,33.59
2022-07-28T00:05:57.047Z,33.62
2022-07-28T00:06:27.039Z,33.65
2022-07-28T00:06:57.159Z,33.64
2022-07-28T00:07:27.277Z,33.59
2022-07-28T00:07:57.394Z,33.62
2022-07-28T00:08:27.503Z,33.70
2022-07-28T00:08:57.503Z,33.62
2022-07-28T00:09:27.526Z,33.64
2022-07-28T00:10:00.556Z,33.57
2022-07-28T00:10:27.601Z,33.63
2022-07-28T00:10:57.629Z,33.70
2022-07-28T00:11:27.685Z,33.64
2022-07-28T00:11:57.710Z,33.64
2022-07-28T00:12:27.750Z,33.64
2022-07-28T00:12:57.768Z,33.62
2022-07-28T00:13:27.800Z,33.63
2022-07-28T00:13:57.827Z,33.64
2022-07-28T00:14:27.847Z,33.67
2022-07-28T00:14:57.881Z,33.62
2022-07-28T00:15:27.896Z,33.65
2022-07-28T00:15:58.013Z,33.59
2022-07-28T00:16:28.161Z,33.59
2022-07-28T00:16:58.053Z,33.62
2022-07-28T00:17:28.081Z,33.67
2022-07-28T00:17:58.103Z,33.59
2022-07-28T00:18:28.135Z,33.67
2022-07-28T00:18:58.156Z,33.64
2022-07-28T00:19:28.180Z,33.69
2022-07-28T00:19:58.204Z,33.68
2022-07-28T00:20:28.236Z,33.65
2022-07-28T00:20:58.485Z,33.65
2022-07-28T00:21:28.407Z,33.65
2022-07-28T00:21:58.438Z,33.64
2022-07-28T00:22:28.458Z,33.68
2022-07-28T00:22:58.484Z,33.67
2022-07-28T00:23:39.048Z,33.68
2022-07-28T00:23:58.558Z,33.70
2022-07-28T00:24:28.587Z,33.70
2022-07-28T00:24:58.610Z,33.67
2022-07-28T00:25:28.640Z,33.68
2022-07-28T00:25:58.661Z,33.73
2022-07-28T00:26:28.693Z,33.67
2022-07-28T00:26:58.718Z,33.65
2022-07-28T00:27:28.742Z,33.63
2022-07-28T00:27:58.769Z,33.63
2022-07-28T00:28:28.792Z,33.67
2022-07-28T00:28:58.829Z,33.70
2022-07-28T00:29:49.188Z,33.67
2022-07-28T00:29:58.905Z,33.73
2022-07-28T00:30:28.931Z,33.68
2022-07-28T00:30:59.038Z,33.70
2022-07-28T00:31:29.037Z,33.76
2022-07-28T00:31:59.194Z,33.71
2022-07-28T00:32:29.207Z,33.67
2022-07-28T00:32:59.240Z,33.71
2022-07-28T00:33:29.266Z,33.70
2022-07-28T00:33:59.293Z,33.68
2022-07-28T00:34:29.316Z,33.75
2022-07-28T00:34:59.400Z,33.70
2022-07-28T00:35:31.160Z,33.73
2022-07-28T00:35:59.531Z,33.70
2022-07-28T00:36:29.558Z,33.68
2022-07-28T00:36:59.578Z,33.73
2022-07-28T00:37:29.608Z,33.73
2022-07-28T00:37:59.626Z,33.75
2022-07-28T00:38:29.658Z,33.70
2022-07-28T00:38:59.684Z,33.75
2022-07-28T00:39:29.710Z,33.70
2022-07-28T00:39:59.737Z,33.70
2022-07-28T00:40:29.763Z,33.71
2022-07-28T00:40:59.803Z,33.71
2022-07-28T00:41:29.832Z,33.71
2022-07-28T00:41:59.856Z,33.71
2022-07-28T00:42:29.883Z,33.68
2022-07-28T00:42:59.913Z,33.66
2022-07-28T00:43:29.946Z,33.73
2022-07-28T00:43:59.970Z,33.73
2022-07-28T00:44:30.007Z,33.71
2022-07-28T00:45:00.037Z,33.75
2022-07-28T00:45:30.065Z,33.67
2022-07-28T00:46:00.110Z,33.66
2022-07-28T00:46:30.210Z,33.76
2022-07-28T00:47:00.314Z,33.71
2022-07-28T00:47:33.611Z,33.74
2022-07-28T00:48:00.374Z,33.73
2022-07-28T00:48:30.400Z,33.75
2022-07-28T00:49:00.495Z,33.71
2022-07-28T00:49:30.433Z,33.70
2022-07-28T00:50:00.454Z,33.73
2022-07-28T00:50:30.483Z,33.74
2022-07-28T00:51:00.516Z,33.71
2022-07-28T00:51:30.551Z,33.73
2022-07-28T00:52:00.573Z,33.66
2022-07-28T00:52:30.598Z,33.73
2022-07-28T00:53:00.625Z,33.69
2022-07-28T00:53:30.666Z,33.73
2022-07-28T00:54:00.690Z,33.73
2022-07-28T00:54:30.720Z,33.68
2022-07-28T00:55:00.742Z,33.68
2022-07-28T00:55:30.768Z,33.71
2022-07-28T00:56:03.011Z,33.73
2022-07-28T00:56:30.845Z,33.76
2022-07-28T00:57:00.868Z,33.76
2022-07-28T00:57:30.899Z,33.71
2022-07-28T00:58:00.925Z,33.68
2022-07-28T00:58:30.952Z,33.71
2022-07-28T00:59:00.973Z,33.71
2022-07-28T00:59:31.081Z,33.71
2022-07-28T01:00:01.145Z,33.71
2022-07-28T01:00:31.262Z,33.71
2022-07-28T01:01:01.267Z,33.68
2022-07-28T01:01:31.473Z,33.71
2022-07-28T01:02:01.702Z,33.71
2022-07-28T01:02:31.675Z,33.71
2022-07-28T01:03:01.614Z,33.65
2022-07-28T01:03:31.475Z,33.73
2022-07-28T01:04:01.584Z,33.73
2022-07-28T01:04:31.705Z,33.74
2022-07-28T01:05:01.821Z,33.74
2022-07-28T01:05:43.338Z,33.76
2022-07-28T01:06:01.956Z,33.69
2022-07-28T01:06:31.943Z,33.72
2022-07-28T01:07:02.057Z,33.76
2022-07-28T01:07:32.175Z,33.71
2022-07-28T01:08:02.174Z,33.72
2022-07-28T01:08:32.190Z,33.73
2022-07-28T01:09:02.182Z,33.69
2022-07-28T01:09:32.214Z,33.66
2022-07-28T01:10:02.240Z,33.73
2022-07-28T01:10:32.266Z,33.71
2022-07-28T01:11:02.299Z,33.71
2022-07-28T01:11:32.328Z,33.68
2022-07-28T01:12:02.374Z,33.69
2022-07-28T01:12:32.401Z,33.79
2022-07-28T01:13:02.427Z,33.72
2022-07-28T01:13:33.273Z,33.74
2022-07-28T01:14:02.449Z,33.73
2022-07-28T01:14:32.473Z,33.73
2022-07-28T01:15:02.499Z,33.68
2022-07-28T01:15:32.530Z,33.71
2022-07-28T01:16:02.659Z,33.71
2022-07-28T01:16:32.660Z,33.69
2022-07-28T01:17:02.692Z,33.71
2022-07-28T01:17:32.725Z,33.69
2022-07-28T01:18:02.775Z,33.71
2022-07-28T01:18:32.797Z,33.73
2022-07-28T01:19:02.829Z,33.73
2022-07-28T01:19:32.854Z,33.72
2022-07-28T01:20:02.890Z,33.72
2022-07-28T01:20:32.911Z,33.72
2022-07-28T01:21:02.943Z,33.68
2022-07-28T01:21:32.974Z,33.69
2022-07-28T01:22:03.003Z,33.71
2022-07-28T01:22:33.034Z,33.71
2022-07-28T01:23:03.059Z,33.68
2022-07-28T01:23:33.086Z,33.71
2022-07-28T01:24:03.117Z,33.76
2022-07-28T01:24:33.143Z,33.69
2022-07-28T01:25:03.172Z,33.72
2022-07-28T01:25:33.202Z,33.67
2022-07-28T01:26:03.238Z,33.69
2022-07-28T01:26:33.266Z,33.71
2022-07-28T01:27:03.295Z,33.73
2022-07-28T01:27:33.324Z,33.71
2022-07-28T01:28:03.355Z,33.69
2022-07-28T01:28:33.375Z,33.72
2022-07-28T01:29:03.404Z,33.73
2022-07-28T01:29:33.434Z,33.71
2022-07-28T01:30:03.460Z,33.69
2022-07-28T01:30:33.489Z,33.72
2022-07-28T01:31:03.627Z,33.71
2022-07-28T01:31:33.692Z,33.72
2022-07-28T01:32:03.713Z,33.71
2022-07-28T01:32:33.741Z,33.71
2022-07-28T01:33:03.766Z,33.72
2022-07-28T01:33:33.795Z,33.66
2022-07-28T01:34:03.818Z,33.71
2022-07-28T01:34:33.848Z,33.73
2022-07-28T01:35:04.184Z,33.69
2022-07-28T01:35:33.939Z,33.69
2022-07-28T01:36:03.975Z,33.72
2022-07-28T01:36:33.993Z,33.71
2022-07-28T01:37:04.027Z,33.76
2022-07-28T01:37:34.049Z,33.72
2022-07-28T01:38:04.076Z,33.69
2022-07-28T01:38:34.101Z,33.72
2022-07-28T01:39:04.131Z,33.72
2022-07-28T01:39:34.156Z,33.68
2022-07-28T01:40:04.187Z,33.74
2022-07-28T01:40:34.215Z,33.72
2022-07-28T01:41:04.248Z,33.73
2022-07-28T01:41:34.340Z,33.71
2022-07-28T01:42:04.365Z,33.74
2022-07-28T01:42:34.390Z,33.72
2022-07-28T01:43:04.426Z,33.72
2022-07-28T01:43:34.441Z,33.76
2022-07-28T01:44:04.464Z,33.71
2022-07-28T01:44:34.492Z,33.76
2022-07-28T01:45:04.519Z,33.72
2022-07-28T01:45:34.544Z,33.69
2022-07-28T01:46:04.882Z,33.69
2022-07-28T01:46:34.716Z,33.69
2022-07-28T01:47:04.749Z,33.71
2022-07-28T01:47:34.774Z,33.76
2022-07-28T01:48:04.803Z,33.64
2022-07-28T01:48:34.934Z,33.67
2022-07-28T01:49:04.903Z,33.69
2022-07-28T01:49:34.927Z,33.71
2022-07-28T01:50:04.964Z,33.72
2022-07-28T01:50:34.993Z,33.71
2022-07-28T01:51:05.019Z,33.77
2022-07-28T01:51:35.051Z,33.69
2022-07-28T01:52:05.078Z,33.69
2022-07-28T01:52:35.107Z,33.72
2022-07-28T01:53:05.135Z,33.69
2022-07-28T01:53:37.826Z,33.69
2022-07-28T01:54:05.216Z,33.71
2022-07-28T01:54:35.245Z,33.74
2022-07-28T01:55:05.273Z,33.72
2022-07-28T01:55:35.305Z,33.72
2022-07-28T01:56:05.333Z,33.71
2022-07-28T01:56:35.374Z,33.71
2022-07-28T01:57:05.406Z,33.71
2022-07-28T01:57:35.443Z,33.65
2022-07-28T01:58:05.471Z,33.79
2022-07-28T01:58:35.508Z,33.71
2022-07-28T01:59:05.517Z,33.74
2022-07-28T01:59:35.634Z,33.72
2022-07-28T02:00:05.745Z,33.72
2022-07-28T02:00:35.866Z,33.71
2022-07-28T02:01:05.977Z,33.72
2022-07-28T02:01:36.181Z,33.72
2022-07-28T02:02:06.294Z,33.71
2022-07-28T02:02:36.285Z,33.77
2022-07-28T02:03:06.400Z,33.69
2022-07-28T02:03:36.393Z,33.71
2022-07-28T02:04:06.507Z,33.67
2022-07-28T02:04:36.678Z,33.72
2022-07-28T02:05:06.720Z,33.69
2022-07-28T02:05:36.773Z,33.69
2022-07-28T02:06:06.854Z,33.70
2022-07-28T02:06:36.989Z,33.71
2022-07-28T02:07:06.980Z,33.70
2022-07-28T02:07:37.093Z,33.74
2022-07-28T02:08:07.214Z,33.74
2022-07-28T02:08:37.326Z,33.72
2022-07-28T02:09:07.328Z,33.70
2022-07-28T02:09:37.360Z,33.71
2022-07-28T02:10:07.381Z,33.72
2022-07-28T02:10:37.410Z,33.67
2022-07-28T02:11:09.782Z,33.77
2022-07-28T02:11:37.494Z,33.67
2022-07-28T02:12:07.529Z,33.69
2022-07-28T02:12:37.548Z,33.69
2022-07-28T02:13:07.575Z,33.66
2022-07-28T02:13:37.621Z,33.74
2022-07-28T02:14:07.661Z,33.67
2022-07-28T02:14:37.676Z,33.69
2022-07-28T02:15:07.698Z,33.69
2022-07-28T02:15:37.764Z,33.75
2022-07-28T02:16:07.987Z,33.72
2022-07-28T02:16:37.805Z,33.74
2022-07-28T02:17:07.879Z,33.75
2022-07-28T02:17:37.874Z,33.75
2022-07-28T02:18:07.898Z,33.74
2022-07-28T02:18:38.010Z,33.69
2022-07-28T02:19:08.042Z,33.77
2022-07-28T02:19:38.062Z,33.76
2022-07-28T02:20:08.087Z,33.75
2022-07-28T02:20:38.116Z,33.75
2022-07-28T02:21:08.139Z,33.75
2022-07-28T02:21:38.168Z,33.74
2022-07-28T02:22:08.186Z,33.73
2022-07-28T02:22:38.213Z,33.74
2022-07-28T02:23:08.240Z,33.74
2022-07-28T02:23:38.274Z,33.73
2022-07-28T02:24:08.298Z,33.77
2022-07-28T02:24:38.320Z,33.77
2022-07-28T02:25:08.354Z,33.75
2022-07-28T02:25:38.375Z,33.67
2022-07-28T02:26:08.407Z,33.70
2022-07-28T02:26:38.434Z,33.77
2022-07-28T02:27:08.462Z,33.75
2022-07-28T02:27:38.486Z,33.70
2022-07-28T02:28:08.515Z,33.72
2022-07-28T02:28:38.542Z,33.70
2022-07-28T02:29:14.914Z,33.74
2022-07-28T02:29:50.626Z,33.73
2022-07-28T02:30:08.658Z,33.80
2022-07-28T02:30:38.749Z,33.75
2022-07-28T02:31:08.858Z,33.80
2022-07-28T02:31:41.956Z,33.72
2022-07-28T02:32:27.379Z,33.74
2022-07-28T02:32:39.007Z,33.83
2022-07-28T02:33:09.023Z,33.78
2022-07-28T02:33:59.779Z,33.75
2022-07-28T02:34:09.169Z,33.73
2022-07-28T02:34:39.207Z,33.72
2022-07-28T02:35:09.557Z,33.77
2022-07-28T02:35:39.306Z,33.74
2022-07-28T02:36:09.338Z,33.75
2022-07-28T02:36:41.363Z,33.75
2022-07-28T02:37:09.498Z,33.72
2022-07-28T02:37:39.569Z,33.75
2022-07-28T02:38:09.595Z,33.72
2022-07-28T02:38:39.624Z,33.80
2022-07-28T02:39:09.648Z,33.72
2022-07-28T02:39:39.679Z,33.74
2022-07-28T02:40:09.703Z,33.77
2022-07-28T02:40:39.730Z,33.77
2022-07-28T02:41:09.757Z,33.75
2022-07-28T02:41:39.832Z,33.72
2022-07-28T02:42:09.866Z,33.70
2022-07-28T02:42:39.886Z,33.72
2022-07-28T02:43:09.915Z,33.74
2022-07-28T02:43:49.257Z,33.82
2022-07-28T02:44:10.159Z,33.74
2022-07-28T02:44:39.979Z,33.77
2022-07-28T02:45:10.011Z,33.77
2022-07-28T02:45:40.040Z,33.70
2022-07-28T02:46:10.148Z,33.77
2022-07-28T02:46:40.252Z,33.75
2022-07-28T02:47:10.284Z,33.70
2022-07-28T02:47:40.310Z,33.74
2022-07-28T02:48:10.334Z,33.75
2022-07-28T02:48:40.392Z,33.75
2022-07-28T02:49:10.531Z,33.75
2022-07-28T02:49:40.415Z,33.78
2022-07-28T02:50:10.459Z,33.76
2022-07-28T02:50:40.477Z,33.75
2022-07-28T02:51:10.509Z,33.75
2022-07-28T02:51:40.537Z,33.79
2022-07-28T02:52:10.567Z,33.73
2022-07-28T02:52:40.597Z,33.72
2022-07-28T02:53:15.826Z,33.77
2022-07-28T02:53:40.665Z,33.72
2022-07-28T02:54:10.975Z,33.73
2022-07-28T02:54:40.745Z,33.72
2022-07-28T02:55:10.775Z,33.72
2022-07-28T02:55:40.799Z,33.75
2022-07-28T02:56:10.824Z,33.72
2022-07-28T02:56:40.857Z,33.74
2022-07-28T02:57:10.880Z,33.77
2022-07-28T02:57:40.907Z,33.74
2022-07-28T02:58:10.941Z,33.74
2022-07-28T02:58:40.963Z,33.74
2022-07-28T02:59:10.968Z,33.75
2022-07-28T02:59:41.084Z,33.77
2022-07-28T03:00:11.199Z,33.72
2022-07-28T03:00:41.310Z,33.79
2022-07-28T03:01:11.505Z,33.70
2022-07-28T03:01:41.615Z,33.70
2022-07-28T03:02:11.610Z,33.78
2022-07-28T03:02:41.720Z,33.69
2022-07-28T03:03:11.837Z,33.72
2022-07-28T03:03:44.155Z,33.75
2022-07-28T03:04:12.273Z,33.77
2022-07-28T03:04:42.131Z,33.77
2022-07-28T03:05:12.139Z,33.78
2022-07-28T03:05:42.134Z,33.75
2022-07-28T03:06:12.251Z,33.74
2022-07-28T03:06:42.403Z,33.77
2022-07-28T03:07:12.417Z,33.75
2022-07-28T03:07:50.633Z,33.78
2022-07-28T03:08:12.517Z,33.78
2022-07-28T03:08:42.626Z,33.75
2022-07-28T03:09:12.640Z,33.78
2022-07-28T03:09:42.664Z,33.77
2022-07-28T03:10:12.691Z,33.68
2022-07-28T03:10:42.720Z,33.77
2022-07-28T03:11:12.747Z,33.74
2022-07-28T03:11:42.753Z,33.78
2022-07-28T03:12:12.784Z,33.78
2022-07-28T03:12:42.812Z,33.78
2022-07-28T03:13:12.841Z,33.75
2022-07-28T03:13:42.868Z,33.85
2022-07-28T03:14:13.196Z,33.77
2022-07-28T03:14:42.938Z,33.72
2022-07-28T03:15:12.969Z,33.80
2022-07-28T03:15:42.993Z,33.77
2022-07-28T03:16:13.022Z,33.85
2022-07-28T03:16:43.161Z,33.77
2022-07-28T03:17:13.099Z,33.78
2022-07-28T03:17:43.117Z,33.75
2022-07-28T03:18:13.148Z,33.78
2022-07-28T03:18:43.174Z,33.78
2022-07-28T03:19:13.210Z,33.80
2022-07-28T03:19:43.233Z,33.77
2022-07-28T03:20:13.265Z,33.77
2022-07-28T03:20:43.297Z,33.75
2022-07-28T03:21:13.322Z,33.77
2022-07-28T03:21:43.362Z,33.72
2022-07-28T03:22:13.395Z,33.78
2022-07-28T03:22:43.424Z,33.78
2022-07-28T03:23:13.449Z,33.75
2022-07-28T03:23:43.473Z,33.75
2022-07-28T03:24:13.757Z,33.82
2022-07-28T03:24:43.553Z,33.78
2022-07-28T03:25:13.580Z,33.80
2022-07-28T03:25:43.608Z,33.80
2022-07-28T03:26:13.638Z,33.75
2022-07-28T03:26:43.663Z,33.80
2022-07-28T03:27:13.693Z,33.80
2022-07-28T03:27:43.719Z,33.81
2022-07-28T03:28:13.749Z,33.81
2022-07-28T03:28:43.771Z,33.76
2022-07-28T03:29:13.796Z,33.82
2022-07-28T03:29:43.823Z,33.80
2022-07-28T03:30:13.856Z,33.81
2022-07-28T03:30:43.934Z,33.78
2022-07-28T03:31:14.115Z,33.82
2022-07-28T03:31:44.141Z,33.82
2022-07-28T03:32:14.034Z,33.82
2022-07-28T03:32:44.070Z,33.82
2022-07-28T03:33:14.088Z,33.77
2022-07-28T03:33:44.131Z,33.80
2022-07-28T03:34:14.488Z,33.83
2022-07-28T03:34:44.164Z,33.80
2022-07-28T03:35:14.195Z,33.76
2022-07-28T03:35:44.216Z,33.80
2022-07-28T03:36:14.250Z,33.83
2022-07-28T03:36:44.279Z,33.80
2022-07-28T03:37:14.307Z,33.83
2022-07-28T03:37:44.334Z,33.77
2022-07-28T03:38:14.363Z,33.75
2022-07-28T03:38:44.387Z,33.83
2022-07-28T03:39:14.411Z,33.81
2022-07-28T03:39:44.440Z,33.81
2022-07-28T03:40:14.466Z,33.83
2022-07-28T03:40:46.019Z,33.86
2022-07-28T03:41:14.610Z,33.81
2022-07-28T03:41:44.642Z,33.86
2022-07-28T03:42:14.667Z,33.81
2022-07-28T03:42:44.693Z,33.83
2022-07-28T03:43:14.721Z,33.86
2022-07-28T03:43:44.742Z,33.80
2022-07-28T03:44:15.235Z,33.83
2022-07-28T03:44:44.814Z,33.87
2022-07-28T03:45:14.842Z,33.86
2022-07-28T03:45:46.594Z,33.82
2022-07-28T03:46:15.001Z,33.83
2022-07-28T03:46:45.059Z,33.83
2022-07-28T03:47:15.091Z,33.84
2022-07-28T03:47:45.117Z,33.87
2022-07-28T03:48:15.150Z,33.86
2022-07-28T03:48:45.254Z,33.92
2022-07-28T03:49:15.248Z,33.78
2022-07-28T03:49:45.168Z,33.86
2022-07-28T03:50:15.201Z,33.87
2022-07-28T03:50:45.228Z,33.83
2022-07-28T03:51:15.256Z,33.87
2022-07-28T03:51:45.311Z,33.83
2022-07-28T03:52:15.346Z,33.83
2022-07-28T03:52:45.372Z,33.86
2022-07-28T03:53:15.396Z,33.81
2022-07-28T03:53:45.437Z,33.79
2022-07-28T03:54:15.945Z,33.86
2022-07-28T03:54:45.559Z,33.84
2022-07-28T03:55:15.589Z,33.84
2022-07-28T03:55:45.619Z,33.86
2022-07-28T03:56:15.649Z,33.90
2022-07-28T03:56:45.708Z,33.84
2022-07-28T03:57:15.738Z,33.86
2022-07-28T03:57:45.763Z,33.84
2022-07-28T03:58:15.793Z,33.86
2022-07-28T03:58:45.826Z,33.84
2022-07-28T03:59:15.940Z,33.84
2022-07-28T03:59:46.055Z,33.89
2022-07-28T04:00:16.061Z,33.86
2022-07-28T04:00:46.192Z,33.84
2022-07-28T04:01:16.324Z,33.86
2022-07-28T04:01:46.413Z,33.81
2022-07-28T04:02:16.441Z,33.86
2022-07-28T04:02:46.505Z,33.82
2022-07-28T04:03:36.305Z,33.82
2022-07-28T04:03:46.512Z,33.87
2022-07-28T04:04:16.822Z,33.87
2022-07-28T04:04:46.657Z,33.86
2022-07-28T04:05:16.780Z,33.86
2022-07-28T04:05:46.892Z,33.86
2022-07-28T04:06:17.007Z,33.84
2022-07-28T04:06:47.132Z,33.82
2022-07-28T04:07:17.131Z,33.82
2022-07-28T04:07:47.238Z,33.81
2022-07-28T04:08:17.353Z,33.87
2022-07-28T04:08:47.468Z,33.82
2022-07-28T04:09:17.494Z,33.82
2022-07-28T04:09:47.522Z,33.82
2022-07-28T04:10:17.545Z,33.82
2022-07-28T04:10:47.591Z,33.81
2022-07-28T04:11:17.621Z,33.87
2022-07-28T04:11:47.666Z,33.86
2022-07-28T04:12:17.691Z,33.81
2022-07-28T04:12:47.719Z,33.82
2022-07-28T04:13:17.744Z,33.82
2022-07-28T04:13:47.771Z,33.86
2022-07-28T04:14:18.246Z,33.79
2022-07-28T04:14:47.868Z,33.81
2022-07-28T04:15:17.885Z,33.84
2022-07-28T04:15:47.918Z,33.79
2022-07-28T04:16:18.009Z,33.79
2022-07-28T04:16:48.159Z,33.82
2022-07-28T04:17:18.066Z,33.84
2022-07-28T04:17:48.098Z,33.84
2022-07-28T04:18:18.132Z,33.86
2022-07-28T04:18:48.155Z,33.79
2022-07-28T04:19:18.186Z,33.79
2022-07-28T04:19:48.210Z,33.82
2022-07-28T04:20:18.262Z,33.82
2022-07-28T04:20:48.296Z,33.76
2022-07-28T04:21:18.324Z,33.79
2022-07-28T04:21:48.348Z,33.82
2022-07-28T04:22:18.378Z,33.79
2022-07-28T04:22:48.407Z,33.78
2022-07-28T04:23:18.433Z,33.81
2022-07-28T04:23:48.454Z,33.81
2022-07-28T04:24:18.923Z,33.81
2022-07-28T04:24:48.584Z,33.77
2022-07-28T04:25:18.613Z,33.81
2022-07-28T04:25:48.635Z,33.78
2022-07-28T04:26:18.662Z,33.79
2022-07-28T04:26:48.686Z,33.76
2022-07-28T04:27:18.718Z,33.82
2022-07-28T04:27:48.740Z,33.81
2022-07-28T04:28:18.759Z,33.82
2022-07-28T04:28:48.785Z,33.79
2022-07-28T04:29:23.300Z,33.79
2022-07-28T04:29:48.850Z,33.81
2022-07-28T04:30:18.878Z,33.76
2022-07-28T04:30:48.947Z,33.83
2022-07-28T04:31:19.118Z,33.78
2022-07-28T04:31:49.069Z,33.81
2022-07-28T04:32:19.104Z,33.76
2022-07-28T04:32:49.130Z,33.81
2022-07-28T04:33:19.157Z,33.79
2022-07-28T04:33:49.183Z,33.84
2022-07-28T04:34:19.206Z,33.73
2022-07-28T04:34:49.234Z,33.73
2022-07-28T04:35:19.257Z,33.72
2022-07-28T04:35:49.282Z,33.79
2022-07-28T04:36:19.314Z,33.73
2022-07-28T04:36:49.342Z,33.76
2022-07-28T04:37:19.372Z,33.78
2022-07-28T04:37:49.397Z,33.74
2022-07-28T04:38:19.432Z,33.76
2022-07-28T04:38:49.454Z,33.78
2022-07-28T04:39:19.482Z,33.79
2022-07-28T04:39:49.507Z,33.79
2022-07-28T04:40:19.534Z,33.69
2022-07-28T04:40:49.567Z,33.76
2022-07-28T04:41:19.587Z,33.63
2022-07-28T04:41:49.617Z,33.42
2022-07-28T04:42:19.640Z,32.98
2022-07-28T04:42:49.672Z,32.72
2022-07-28T04:43:19.701Z,32.40
2022-07-28T04:43:49.778Z,32.10
2022-07-28T04:44:19.804Z,31.98
2022-07-28T04:44:49.830Z,32.57
2022-07-28T04:45:19.858Z,32.24
2022-07-28T04:45:54.088Z,32.45
2022-07-28T04:46:20.049Z,32.26
2022-07-28T04:46:50.068Z,32.29
2022-07-28T04:47:20.097Z,32.38
2022-07-28T04:47:50.128Z,32.40
2022-07-28T04:48:20.150Z,32.48
2022-07-28T04:48:50.267Z,32.39
2022-07-28T04:49:20.368Z,32.21
2022-07-28T04:49:50.390Z,32.48
2022-07-28T04:50:20.416Z,32.10
2022-07-28T04:50:50.441Z,32.35
2022-07-28T04:51:20.468Z,32.46
2022-07-28T04:51:50.517Z,32.60
2022-07-28T04:52:20.549Z,32.86
2022-07-28T04:52:50.570Z,32.98
2022-07-28T04:53:20.593Z,32.82
2022-07-28T04:53:50.626Z,32.89
2022-07-28T04:54:26.045Z,33.09
2022-07-28T04:54:50.685Z,33.29
2022-07-28T04:55:20.712Z,33.30
2022-07-28T04:55:50.740Z,33.16
2022-07-28T04:56:20.847Z,33.23
2022-07-28T04:56:50.870Z,33.26
2022-07-28T04:57:20.900Z,33.27
2022-07-28T04:57:50.931Z,33.48
2022-07-28T04:58:21.094Z,33.57
2022-07-28T04:58:51.050Z,33.62
2022-07-28T04:59:21.056Z,33.66
2022-07-28T04:59:51.077Z,33.79
2022-07-28T05:00:21.184Z,33.71
2022-07-28T05:00:51.411Z,33.77
2022-07-28T05:01:21.376Z,33.80
2022-07-28T05:01:51.512Z,33.83
2022-07-28T05:02:21.393Z,33.77
2022-07-28T05:02:51.500Z,33.96
2022-07-28T05:03:21.615Z,34.08
2022-07-28T05:03:51.733Z,34.08
2022-07-28T05:04:21.810Z,34.17
2022-07-28T05:04:51.900Z,34.21
2022-07-28T05:05:21.885Z,34.14
2022-07-28T05:05:54.519Z,34.10
2022-07-28T05:06:22.117Z,34.13
2022-07-28T05:06:52.106Z,34.19
2022-07-28T05:07:22.096Z,34.27
2022-07-28T05:07:52.206Z,34.30
2022-07-28T05:08:22.333Z,34.25
2022-07-28T05:08:52.324Z,34.27
2022-07-28T05:09:22.351Z,34.29
2022-07-28T05:09:52.379Z,34.35
2022-07-28T05:10:22.408Z,34.47
2022-07-28T05:10:52.445Z,34.45
2022-07-28T05:11:22.480Z,34.49
2022-07-28T05:11:52.528Z,34.47
2022-07-28T05:12:22.552Z,34.57
2022-07-28T05:12:52.583Z,34.55
2022-07-28T05:13:22.613Z,34.45
2022-07-28T05:13:52.649Z,34.54
2022-07-28T05:14:22.674Z,34.65
2022-07-28T05:14:52.699Z,34.71
2022-07-28T05:15:22.938Z,34.80
2022-07-28T05:15:52.745Z,34.81
2022-07-28T05:16:22.921Z,34.84
2022-07-28T05:16:52.993Z,34.91
2022-07-28T05:17:22.932Z,34.93
2022-07-28T05:17:52.958Z,34.97
2022-07-28T05:18:22.985Z,34.98
2022-07-28T05:18:53.010Z,34.99
2022-07-28T05:19:23.037Z,35.04
2022-07-28T05:19:53.143Z,35.00
2022-07-28T05:20:23.056Z,35.29
2022-07-28T05:20:53.086Z,35.19
2022-07-28T05:21:23.110Z,35.13
2022-07-28T05:21:53.150Z,35.42
2022-07-28T05:22:23.175Z,35.49
2022-07-28T05:22:53.202Z,35.49
2022-07-28T05:23:23.226Z,35.38
2022-07-28T05:23:53.248Z,35.31
2022-07-28T05:24:23.276Z,35.58
2022-07-28T05:24:53.299Z,35.60
2022-07-28T05:25:23.333Z,36.38
2022-07-28T05:25:53.356Z,36.37
2022-07-28T05:26:23.380Z,37.50
2022-07-28T05:26:53.431Z,38.11
2022-07-28T05:27:23.452Z,38.80
2022-07-28T05:27:53.491Z,39.00
2022-07-28T05:28:23.509Z,38.77
2022-07-28T05:28:53.552Z,39.25
2022-07-28T05:29:23.600Z,39.03
2022-07-28T05:29:53.626Z,39.65
2022-07-28T05:30:23.654Z,39.26
2022-07-28T05:30:53.680Z,38.36
2022-07-28T05:31:23.787Z,38.30
2022-07-28T05:31:53.900Z,38.05
2022-07-28T05:32:23.880Z,37.26
2022-07-28T05:32:53.938Z,37.02
2022-07-28T05:33:23.975Z,37.22
2022-07-28T05:33:54.024Z,37.16
2022-07-28T05:34:24.081Z,37.34
2022-07-28T05:34:54.113Z,36.80
2022-07-28T05:35:24.136Z,36.79
2022-07-28T05:35:54.165Z,36.77
2022-07-28T05:36:24.193Z,36.70
2022-07-28T05:36:54.264Z,36.57
2022-07-28T05:37:24.292Z,36.60
2022-07-28T05:37:54.318Z,36.60
2022-07-28T05:38:24.346Z,36.42
2022-07-28T05:38:54.377Z,36.43
2022-07-28T05:39:24.411Z,36.35
2022-07-28T05:39:54.444Z,36.11
2022-07-28T05:40:24.466Z,36.04
2022-07-28T05:40:54.501Z,36.04
2022-07-28T05:41:24.524Z,35.99
2022-07-28T05:41:54.585Z,35.95
2022-07-28T05:42:24.606Z,35.78
2022-07-28T05:42:54.641Z,35.55
2022-07-28T05:43:24.674Z,35.44
2022-07-28T05:43:54.701Z,35.34
2022-07-28T05:44:24.756Z,35.42
2022-07-28T05:44:54.784Z,35.38
2022-07-28T05:45:24.930Z,35.27
2022-07-28T05:45:54.885Z,35.34
2022-07-28T05:46:25.020Z,35.17
2022-07-28T05:46:55.052Z,35.10
2022-07-28T05:47:25.080Z,35.13
2022-07-28T05:47:55.122Z,35.14
2022-07-28T05:48:25.153Z,35.22
2022-07-28T05:48:55.276Z,35.32
2022-07-28T05:49:25.358Z,35.36
2022-07-28T05:49:55.390Z,35.30
2022-07-28T05:50:25.422Z,35.29
2022-07-28T05:50:55.443Z,35.36
2022-07-28T05:51:25.470Z,35.42
2022-07-28T05:51:55.495Z,35.55
2022-07-28T05:52:25.525Z,35.58
2022-07-28T05:52:55.574Z,35.53
2022-07-28T05:53:25.600Z,35.46
2022-07-28T05:53:55.630Z,35.55
2022-07-28T05:54:25.889Z,35.56
2022-07-28T05:54:55.753Z,35.60
2022-07-28T05:55:25.773Z,35.79
2022-07-28T05:56:00.898Z,35.63
2022-07-28T05:56:25.850Z,35.83
2022-07-28T05:56:55.878Z,35.76
2022-07-28T05:57:25.910Z,35.86
2022-07-28T05:57:55.962Z,35.93
2022-07-28T05:58:25.991Z,35.95
2022-07-28T05:58:56.038Z,35.92
2022-07-28T05:59:26.151Z,35.94
2022-07-28T05:59:56.265Z,35.87
2022-07-28T06:00:26.383Z,35.97
2022-07-28T06:00:56.597Z,35.95
2022-07-28T06:01:26.694Z,35.79
2022-07-28T06:01:56.719Z,35.76
2022-07-28T06:02:26.766Z,35.55
2022-07-28T06:02:56.779Z,35.48
2022-07-28T06:03:26.763Z,35.45
2022-07-28T06:04:26.455Z,35.38
2022-07-28T06:04:28.159Z,35.42
2022-07-28T06:04:56.895Z,35.30
2022-07-28T06:05:27.011Z,35.48
2022-07-28T06:05:59.446Z,35.56
2022-07-28T06:06:27.138Z,35.59
2022-07-28T06:06:57.254Z,35.59
2022-07-28T06:07:43.597Z,35.81
2022-07-28T06:07:57.409Z,35.67
2022-07-28T06:08:27.389Z,35.84
2022-07-28T06:08:57.392Z,36.11
2022-07-28T06:09:27.420Z,35.92
2022-07-28T06:09:57.442Z,35.78
2022-07-28T06:10:27.516Z,35.77
2022-07-28T06:10:57.556Z,35.64
2022-07-28T06:11:27.560Z,35.89
2022-07-28T06:11:57.589Z,36.00
2022-07-28T06:12:27.615Z,35.94
2022-07-28T06:12:57.683Z,35.94
2022-07-28T06:13:27.710Z,35.76
2022-07-28T06:13:57.735Z,35.68
2022-07-28T06:14:27.813Z,35.70
2022-07-28T06:14:57.810Z,35.78
2022-07-28T06:15:27.841Z,35.66
2022-07-28T06:15:57.983Z,35.53
2022-07-28T06:16:28.052Z,35.39
2022-07-28T06:16:58.133Z,35.49
2022-07-28T06:17:28.147Z,35.33
2022-07-28T06:17:58.194Z,35.19
2022-07-28T06:18:28.221Z,35.22
2022-07-28T06:18:58.246Z,35.30
2022-07-28T06:19:28.274Z,35.24
2022-07-28T06:19:58.301Z,35.16
2022-07-28T06:20:28.681Z,35.21
2022-07-28T06:20:58.393Z,35.23
2022-07-28T06:21:28.405Z,35.08
2022-07-28T06:21:58.432Z,35.14
2022-07-28T06:22:28.471Z,35.13
2022-07-28T06:22:58.544Z,35.20
2022-07-28T06:23:28.583Z,35.19
2022-07-28T06:23:58.606Z,35.28
2022-07-28T06:24:28.628Z,35.30
2022-07-28T06:24:58.673Z,35.32
2022-07-28T06:25:28.695Z,35.32
2022-07-28T06:25:58.727Z,35.26
2022-07-28T06:26:28.766Z,35.39
2022-07-28T06:26:58.798Z,35.28